sensor_id;sensor_type;location;lat;lon;timestamp;pressure;altitude;pressure_sealevel;temperature;humidity
53041;BME280;39326;42.650;23.248;2023-02-10T00:00:25;94171.84;;;-8.08;64.45
53041;BME280;39326;42.650;23.248;2023-02-10T00:02:50;94168.56;;;-8.03;64.39
53041;BME280;39326;42.650;23.248;2023-02-10T00:05:18;94168.38;;;-8.01;64.39
53041;BME280;39326;42.650;23.248;2023-02-10T00:07:43;94165.53;;;-8.00;64.46
53041;BME280;39326;42.650;23.248;2023-02-10T00:10:09;94173.97;;;-8.05;64.48
53041;BME280;39326;42.650;23.248;2023-02-10T00:12:36;94163.09;;;-8.18;64.90
53041;BME280;39326;42.650;23.248;2023-02-10T00:15:04;94162.97;;;-8.23;65.92
53041;BME280;39326;42.650;23.248;2023-02-10T00:17:30;94163.31;;;-8.20;65.10
53041;BME280;39326;42.650;23.248;2023-02-10T00:19:56;94157.00;;;-8.24;65.87
53041;BME280;39326;42.650;23.248;2023-02-10T00:22:21;94154.31;;;-8.17;64.99
53041;BME280;39326;42.650;23.248;2023-02-10T00:24:47;94156.34;;;-8.19;65.48
53041;BME280;39326;42.650;23.248;2023-02-10T00:27:12;94154.31;;;-8.17;65.38
53041;BME280;39326;42.650;23.248;2023-02-10T00:29:38;94149.25;;;-8.24;66.18
53041;BME280;39326;42.650;23.248;2023-02-10T00:32:04;94146.31;;;-8.27;66.35
53041;BME280;39326;42.650;23.248;2023-02-10T00:34:29;94151.53;;;-8.39;67.29
53041;BME280;39326;42.650;23.248;2023-02-10T00:36:55;94151.06;;;-8.36;66.59
53041;BME280;39326;42.650;23.248;2023-02-10T00:39:20;94141.84;;;-8.32;66.54
53041;BME280;39326;42.650;23.248;2023-02-10T00:41:46;94141.38;;;-8.29;66.21
53041;BME280;39326;42.650;23.248;2023-02-10T00:44:12;94136.44;;;-8.30;66.72
53041;BME280;39326;42.650;23.248;2023-02-10T00:46:37;94132.28;;;-8.32;66.98
53041;BME280;39326;42.650;23.248;2023-02-10T00:49:03;94127.53;;;-8.35;66.78
53041;BME280;39326;42.650;23.248;2023-02-10T00:51:28;94127.53;;;-8.35;66.64
53041;BME280;39326;42.650;23.248;2023-02-10T00:53:54;94129.16;;;-8.34;66.69
53041;BME280;39326;42.650;23.248;2023-02-10T00:56:20;94137.88;;;-8.35;66.74
53041;BME280;39326;42.650;23.248;2023-02-10T00:58:47;94127.78;;;-8.24;65.67
53041;BME280;39326;42.650;23.248;2023-02-10T01:01:13;94123.84;;;-8.27;66.03
53041;BME280;39326;42.650;23.248;2023-02-10T01:03:39;94124.97;;;-8.35;66.47
53041;BME280;39326;42.650;23.248;2023-02-10T01:06:05;94116.53;;;-8.42;66.85
53041;BME280;39326;42.650;23.248;2023-02-10T01:08:32;94113.50;;;-8.39;67.10
53041;BME280;39326;42.650;23.248;2023-02-10T01:11:03;94120.00;;;-8.36;66.80
53041;BME280;39326;42.650;23.248;2023-02-10T01:13:30;94127.09;;;-8.32;66.45
53041;BME280;39326;42.650;23.248;2023-02-10T01:15:56;94119.13;;;-8.30;66.18
53041;BME280;39326;42.650;23.248;2023-02-10T01:18:22;94116.63;;;-8.25;65.95
53041;BME280;39326;42.650;23.248;2023-02-10T01:20:47;94111.69;;;-8.26;66.08
53041;BME280;39326;42.650;23.248;2023-02-10T01:23:13;94111.91;;;-8.28;66.17
53041;BME280;39326;42.650;23.248;2023-02-10T01:25:38;94104.25;;;-8.35;66.58
53041;BME280;39326;42.650;23.248;2023-02-10T01:28:05;94107.88;;;-8.36;66.53
53041;BME280;39326;42.650;23.248;2023-02-10T01:30:32;94096.63;;;-8.41;66.38
53041;BME280;39326;42.650;23.248;2023-02-10T01:32:57;94104.63;;;-8.43;67.24
53041;BME280;39326;42.650;23.248;2023-02-10T01:35:23;94100.56;;;-8.39;66.85
53041;BME280;39326;42.650;23.248;2023-02-10T01:37:49;94096.44;;;-8.40;66.72
53041;BME280;39326;42.650;23.248;2023-02-10T01:40:15;94095.06;;;-8.42;66.38
53041;BME280;39326;42.650;23.248;2023-02-10T01:42:40;94102.03;;;-8.43;66.85
53041;BME280;39326;42.650;23.248;2023-02-10T01:47:51;94102.03;;;-8.54;66.60
53041;BME280;39326;42.650;23.248;2023-02-10T01:50:20;94097.53;;;-8.59;67.17
53041;BME280;39326;42.650;23.248;2023-02-10T01:52:47;94094.41;;;-8.73;68.15
53041;BME280;39326;42.650;23.248;2023-02-10T01:55:17;94091.81;;;-8.73;67.54
53041;BME280;39326;42.650;23.248;2023-02-10T01:57:44;94091.03;;;-8.73;67.82
53041;BME280;39326;42.650;23.248;2023-02-10T02:00:12;94085.41;;;-8.70;67.88
53041;BME280;39326;42.650;23.248;2023-02-10T02:02:40;94079.13;;;-8.74;67.64
53041;BME280;39326;42.650;23.248;2023-02-10T02:05:18;94067.44;;;-8.77;68.04
53041;BME280;39326;42.650;23.248;2023-02-10T02:07:44;94070.59;;;-8.75;67.44
53041;BME280;39326;42.650;23.248;2023-02-10T02:10:10;94064.63;;;-8.75;67.68
53041;BME280;39326;42.650;23.248;2023-02-10T02:13:00;94059.22;;;-8.74;67.95
53041;BME280;39326;42.650;23.248;2023-02-10T02:15:42;94062.59;;;-8.73;67.54
53041;BME280;39326;42.650;23.248;2023-02-10T02:18:26;94060.00;;;-8.85;67.31
53041;BME280;39326;42.650;23.248;2023-02-10T02:21:09;94055.97;;;-9.04;68.79
53041;BME280;39326;42.650;23.248;2023-02-10T02:32:22;94060.81;;;-9.08;68.70
53041;BME280;39326;42.650;23.248;2023-02-10T02:37:21;94062.91;;;-9.17;69.79
53041;BME280;39326;42.650;23.248;2023-02-10T02:39:49;94066.72;;;-9.19;70.28
53041;BME280;39326;42.650;23.248;2023-02-10T02:42:24;94062.59;;;-9.20;70.44
53041;BME280;39326;42.650;23.248;2023-02-10T02:44:54;94060.91;;;-9.15;69.76
53041;BME280;39326;42.650;23.248;2023-02-10T02:50:25;94055.84;;;-8.98;69.43
53041;BME280;39326;42.650;23.248;2023-02-10T03:01:12;94047.75;;;-9.13;69.21
53041;BME280;39326;42.650;23.248;2023-02-10T03:03:39;94052.38;;;-9.15;69.78
53041;BME280;39326;42.650;23.248;2023-02-10T03:06:05;94049.78;;;-9.03;69.02
53041;BME280;39326;42.650;23.248;2023-02-10T03:08:33;94042.38;;;-9.00;68.18
53041;BME280;39326;42.650;23.248;2023-02-10T03:10:59;94040.22;;;-9.03;68.03
53041;BME280;39326;42.650;23.248;2023-02-10T03:13:24;94044.84;;;-9.05;68.68
53041;BME280;39326;42.650;23.248;2023-02-10T03:15:50;94046.41;;;-9.04;68.14
53041;BME280;39326;42.650;23.248;2023-02-10T03:18:16;94058.31;;;-9.15;69.23
53041;BME280;39326;42.650;23.248;2023-02-10T03:20:42;94055.16;;;-9.17;69.65
53041;BME280;39326;42.650;23.248;2023-02-10T03:23:09;94057.44;;;-9.08;68.48
53041;BME280;39326;42.650;23.248;2023-02-10T03:25:35;94055.84;;;-9.21;68.98
53041;BME280;39326;42.650;23.248;2023-02-10T03:28:01;94051.22;;;-9.31;70.03
53041;BME280;39326;42.650;23.248;2023-02-10T03:30:26;94050.69;;;-9.21;69.38
53041;BME280;39326;42.650;23.248;2023-02-10T03:32:52;94045.97;;;-9.13;69.24
53041;BME280;39326;42.650;23.248;2023-02-10T03:35:19;94052.16;;;-9.14;68.83
53041;BME280;39326;42.650;23.248;2023-02-10T03:37:45;94051.78;;;-9.17;69.00
53041;BME280;39326;42.650;23.248;2023-02-10T03:40:11;94043.81;;;-9.16;68.82
53041;BME280;39326;42.650;23.248;2023-02-10T03:42:36;94040.03;;;-9.13;69.41
53041;BME280;39326;42.650;23.248;2023-02-10T03:45:02;94042.59;;;-9.13;68.75
53041;BME280;39326;42.650;23.248;2023-02-10T03:47:28;94030.47;;;-9.13;68.97
53041;BME280;39326;42.650;23.248;2023-02-10T03:49:54;94027.22;;;-9.20;69.47
53041;BME280;39326;42.650;23.248;2023-02-10T03:52:19;94019.00;;;-9.17;68.80
53041;BME280;39326;42.650;23.248;2023-02-10T03:54:45;94021.38;;;-9.15;68.82
53041;BME280;39326;42.650;23.248;2023-02-10T03:57:11;94026.31;;;-9.25;69.21
53041;BME280;39326;42.650;23.248;2023-02-10T03:59:37;94020.59;;;-9.27;69.31
53041;BME280;39326;42.650;23.248;2023-02-10T04:02:02;94023.81;;;-9.44;70.43
53041;BME280;39326;42.650;23.248;2023-02-10T04:04:28;94021.88;;;-9.48;71.06
53041;BME280;39326;42.650;23.248;2023-02-10T04:06:54;94026.75;;;-9.40;71.19
53041;BME280;39326;42.650;23.248;2023-02-10T04:09:19;94026.94;;;-9.42;70.70
53041;BME280;39326;42.650;23.248;2023-02-10T04:11:45;94020.91;;;-9.35;70.41
53041;BME280;39326;42.650;23.248;2023-02-10T04:14:11;94021.69;;;-9.23;69.26
53041;BME280;39326;42.650;23.248;2023-02-10T04:16:37;94020.25;;;-9.19;69.38
53041;BME280;39326;42.650;23.248;2023-02-10T04:19:02;94020.47;;;-9.21;69.55
53041;BME280;39326;42.650;23.248;2023-02-10T04:21:28;94026.41;;;-9.32;69.30
53041;BME280;39326;42.650;23.248;2023-02-10T04:23:54;94021.81;;;-9.30;69.82
53041;BME280;39326;42.650;23.248;2023-02-10T04:26:21;94026.84;;;-9.35;69.83
53041;BME280;39326;42.650;23.248;2023-02-10T04:28:48;94023.81;;;-9.44;70.38
53041;BME280;39326;42.650;23.248;2023-02-10T04:31:13;94022.91;;;-9.49;70.36
53041;BME280;39326;42.650;23.248;2023-02-10T04:33:39;94025.25;;;-9.48;71.12
53041;BME280;39326;42.650;23.248;2023-02-10T04:36:05;94024.28;;;-9.47;71.55
53041;BME280;39326;42.650;23.248;2023-02-10T04:38:31;94028.44;;;-9.34;70.91
53041;BME280;39326;42.650;23.248;2023-02-10T04:40:57;94026.31;;;-9.25;70.18
53041;BME280;39326;42.650;23.248;2023-02-10T04:43:23;94017.78;;;-9.26;69.48
53041;BME280;39326;42.650;23.248;2023-02-10T04:45:48;94012.72;;;-9.32;69.50
53041;BME280;39326;42.650;23.248;2023-02-10T04:48:14;94035.38;;;-9.23;69.20
53041;BME280;39326;42.650;23.248;2023-02-10T04:50:40;94034.06;;;-9.25;69.17
53041;BME280;39326;42.650;23.248;2023-02-10T04:53:06;94037.66;;;-9.26;69.41
53041;BME280;39326;42.650;23.248;2023-02-10T04:55:32;94029.22;;;-9.33;69.11
53041;BME280;39326;42.650;23.248;2023-02-10T04:57:58;94036.28;;;-9.29;69.75
53041;BME280;39326;42.650;23.248;2023-02-10T05:00:24;94036.97;;;-9.33;69.89
53041;BME280;39326;42.650;23.248;2023-02-10T05:02:50;94033.25;;;-9.37;69.85
53041;BME280;39326;42.650;23.248;2023-02-10T05:05:16;94038.06;;;-9.41;69.47
53041;BME280;39326;42.650;23.248;2023-02-10T05:07:41;94036.72;;;-9.44;69.78
53041;BME280;39326;42.650;23.248;2023-02-10T05:10:07;94041.31;;;-9.46;70.18
53041;BME280;39326;42.650;23.248;2023-02-10T05:12:32;94042.91;;;-9.45;70.23
53041;BME280;39326;42.650;23.248;2023-02-10T05:14:58;94041.19;;;-9.51;70.01
53041;BME280;39326;42.650;23.248;2023-02-10T05:17:24;94046.13;;;-9.49;70.04
53041;BME280;39326;42.650;23.248;2023-02-10T05:19:49;94047.69;;;-9.48;70.20
53041;BME280;39326;42.650;23.248;2023-02-10T05:22:15;94044.22;;;-9.54;70.34
53041;BME280;39326;42.650;23.248;2023-02-10T05:24:40;94068.81;;;-9.51;69.80
53041;BME280;39326;42.650;23.248;2023-02-10T05:27:07;94068.22;;;-9.53;69.77
53041;BME280;39326;42.650;23.248;2023-02-10T05:29:32;94074.25;;;-9.59;71.00
53041;BME280;39326;42.650;23.248;2023-02-10T05:31:58;94076.78;;;-9.53;70.32
53041;BME280;39326;42.650;23.248;2023-02-10T05:34:24;94076.66;;;-9.58;70.63
53041;BME280;39326;42.650;23.248;2023-02-10T05:36:51;94074.97;;;-9.52;70.41
53041;BME280;39326;42.650;23.248;2023-02-10T05:39:17;94075.66;;;-9.45;69.88
53041;BME280;39326;42.650;23.248;2023-02-10T05:41:56;94084.53;;;-9.41;70.24
53041;BME280;39326;42.650;23.248;2023-02-10T05:44:23;94082.53;;;-9.39;69.32
53041;BME280;39326;42.650;23.248;2023-02-10T05:46:49;94084.53;;;-9.41;70.13
53041;BME280;39326;42.650;23.248;2023-02-10T05:49:15;94091.72;;;-9.43;70.69
53041;BME280;39326;42.650;23.248;2023-02-10T05:51:41;94079.81;;;-9.44;70.13
53041;BME280;39326;42.650;23.248;2023-02-10T05:54:07;94094.19;;;-9.36;70.76
53041;BME280;39326;42.650;23.248;2023-02-10T05:56:33;94100.50;;;-9.32;70.62
53041;BME280;39326;42.650;23.248;2023-02-10T05:58:59;94094.56;;;-9.33;70.13
53041;BME280;39326;42.650;23.248;2023-02-10T06:01:25;94089.28;;;-9.26;70.19
53041;BME280;39326;42.650;23.248;2023-02-10T06:03:50;94083.25;;;-9.20;69.95
53041;BME280;39326;42.650;23.248;2023-02-10T06:06:16;94104.22;;;-9.17;70.16
53041;BME280;39326;42.650;23.248;2023-02-10T06:08:42;94101.00;;;-9.12;70.44
53041;BME280;39326;42.650;23.248;2023-02-10T06:11:07;94103.16;;;-9.09;69.99
53041;BME280;39326;42.650;23.248;2023-02-10T06:13:34;94112.56;;;-9.15;69.89
53041;BME280;39326;42.650;23.248;2023-02-10T06:15:59;94114.81;;;-9.06;69.99
53041;BME280;39326;42.650;23.248;2023-02-10T06:18:28;94110.66;;;-9.07;70.54
53041;BME280;39326;42.650;23.248;2023-02-10T06:20:53;94117.06;;;-8.98;70.53
53041;BME280;39326;42.650;23.248;2023-02-10T06:23:19;94092.13;;;-9.04;69.80
53041;BME280;39326;42.650;23.248;2023-02-10T06:25:46;94117.31;;;-8.88;70.48
53041;BME280;39326;42.650;23.248;2023-02-10T06:28:12;94122.50;;;-8.88;70.53
53041;BME280;39326;42.650;23.248;2023-02-10T06:30:40;94124.75;;;-8.80;69.89
53041;BME280;39326;42.650;23.248;2023-02-10T06:33:05;94121.72;;;-8.77;70.25
53041;BME280;39326;42.650;23.248;2023-02-10T06:35:31;94119.22;;;-8.72;70.37
53041;BME280;39326;42.650;23.248;2023-02-10T06:37:57;94119.69;;;-8.63;70.63
53041;BME280;39326;42.650;23.248;2023-02-10T06:40:22;94131.50;;;-8.55;70.48
53041;BME280;39326;42.650;23.248;2023-02-10T06:42:48;94120.25;;;-8.49;70.10
53041;BME280;39326;42.650;23.248;2023-02-10T06:45:14;94127.00;;;-8.37;70.63
53041;BME280;39326;42.650;23.248;2023-02-10T06:47:40;94129.34;;;-8.23;70.23
53041;BME280;39326;42.650;23.248;2023-02-10T06:50:05;94125.94;;;-8.12;69.88
53041;BME280;39326;42.650;23.248;2023-02-10T06:52:32;94133.25;;;-8.09;69.78
53041;BME280;39326;42.650;23.248;2023-02-10T06:55:00;94136.53;;;-8.02;69.69
53041;BME280;39326;42.650;23.248;2023-02-10T06:57:25;94135.69;;;-7.91;69.84
53041;BME280;39326;42.650;23.248;2023-02-10T06:59:51;94138.59;;;-7.75;69.37
53041;BME280;39326;42.650;23.248;2023-02-10T07:02:18;94141.69;;;-7.62;69.12
53041;BME280;39326;42.650;23.248;2023-02-10T07:04:43;94147.75;;;-7.56;68.53
53041;BME280;39326;42.650;23.248;2023-02-10T07:07:09;94141.44;;;-7.60;68.63
53041;BME280;39326;42.650;23.248;2023-02-10T07:09:35;94141.06;;;-7.52;68.15
53041;BME280;39326;42.650;23.248;2023-02-10T07:12:00;94140.03;;;-7.39;68.00
53041;BME280;39326;42.650;23.248;2023-02-10T07:14:26;94137.06;;;-7.31;68.07
53041;BME280;39326;42.650;23.248;2023-02-10T07:16:52;94135.88;;;-7.24;67.71
53041;BME280;39326;42.650;23.248;2023-02-10T07:19:17;94129.91;;;-7.24;67.60
53041;BME280;39326;42.650;23.248;2023-02-10T07:21:43;94122.47;;;-7.49;68.19
53041;BME280;39326;42.650;23.248;2023-02-10T07:24:09;94128.91;;;-7.23;68.30
53041;BME280;39326;42.650;23.248;2023-02-10T07:26:34;94123.91;;;-6.96;68.01
53041;BME280;39326;42.650;23.248;2023-02-10T07:29:00;94130.66;;;-6.78;67.45
53041;BME280;39326;42.650;23.248;2023-02-10T07:31:26;94129.03;;;-6.68;66.66
53041;BME280;39326;42.650;23.248;2023-02-10T07:33:51;94131.06;;;-6.53;66.99
53041;BME280;39326;42.650;23.248;2023-02-10T07:36:17;94136.16;;;-6.41;66.64
53041;BME280;39326;42.650;23.248;2023-02-10T07:38:42;94130.97;;;-6.24;66.09
53041;BME280;39326;42.650;23.248;2023-02-10T07:41:08;94130.13;;;-6.08;66.64
53041;BME280;39326;42.650;23.248;2023-02-10T07:43:34;94129.78;;;-6.33;65.53
53041;BME280;39326;42.650;23.248;2023-02-10T07:45:59;94122.50;;;-6.15;66.05
53041;BME280;39326;42.650;23.248;2023-02-10T07:48:26;94130.41;;;-5.88;65.56
53041;BME280;39326;42.650;23.248;2023-02-10T07:50:51;94127.31;;;-5.84;64.68
53041;BME280;39326;42.650;23.248;2023-02-10T07:53:18;94133.41;;;-5.96;64.29
53041;BME280;39326;42.650;23.248;2023-02-10T07:55:44;94134.91;;;-5.78;64.78
53041;BME280;39326;42.650;23.248;2023-02-10T07:58:09;94141.50;;;-5.92;64.49
53041;BME280;39326;42.650;23.248;2023-02-10T08:00:35;94144.94;;;-5.87;63.70
53041;BME280;39326;42.650;23.248;2023-02-10T08:03:01;94149.75;;;-5.95;64.08
53041;BME280;39326;42.650;23.248;2023-02-10T08:05:26;94150.09;;;-6.08;64.24
53041;BME280;39326;42.650;23.248;2023-02-10T08:07:54;94153.34;;;-5.79;64.34
53041;BME280;39326;42.650;23.248;2023-02-10T08:10:20;94148.81;;;-5.67;63.84
53041;BME280;39326;42.650;23.248;2023-02-10T08:12:45;94143.78;;;-5.52;63.88
53041;BME280;39326;42.650;23.248;2023-02-10T08:15:14;94138.28;;;-5.34;62.74
53041;BME280;39326;42.650;23.248;2023-02-10T08:17:43;94136.53;;;-5.28;62.78
53041;BME280;39326;42.650;23.248;2023-02-10T08:20:08;94117.06;;;-4.98;62.48
53041;BME280;39326;42.650;23.248;2023-02-10T08:22:34;94128.34;;;-4.51;61.22
53041;BME280;39326;42.650;23.248;2023-02-10T08:25:00;94130.72;;;-4.49;60.81
53041;BME280;39326;42.650;23.248;2023-02-10T08:27:26;94129.69;;;-4.48;60.65
53041;BME280;39326;42.650;23.248;2023-02-10T08:29:51;94134.53;;;-4.25;60.38
53041;BME280;39326;42.650;23.248;2023-02-10T08:32:17;94131.38;;;-3.84;60.46
53041;BME280;39326;42.650;23.248;2023-02-10T08:34:47;94129.78;;;-3.90;59.02
53041;BME280;39326;42.650;23.248;2023-02-10T08:37:15;94134.38;;;-3.50;59.48
53041;BME280;39326;42.650;23.248;2023-02-10T08:39:41;94136.22;;;-3.46;59.02
53041;BME280;39326;42.650;23.248;2023-02-10T08:42:07;94137.78;;;-3.45;57.58
53041;BME280;39326;42.650;23.248;2023-02-10T08:44:33;94132.66;;;-3.14;58.29
53041;BME280;39326;42.650;23.248;2023-02-10T08:46:59;94131.53;;;-3.38;57.73
53041;BME280;39326;42.650;23.248;2023-02-10T08:49:25;94134.22;;;-3.18;57.27
53041;BME280;39326;42.650;23.248;2023-02-10T08:51:51;94121.22;;;-2.88;56.96
53041;BME280;39326;42.650;23.248;2023-02-10T08:54:18;94134.28;;;-2.26;56.37
53041;BME280;39326;42.650;23.248;2023-02-10T08:56:43;94132.97;;;-2.44;54.98
53041;BME280;39326;42.650;23.248;2023-02-10T08:59:09;94138.19;;;-2.14;55.11
53041;BME280;39326;42.650;23.248;2023-02-10T09:01:35;94130.34;;;-2.09;54.28
53041;BME280;39326;42.650;23.248;2023-02-10T09:04:01;94120.31;;;-1.66;53.91
53041;BME280;39326;42.650;23.248;2023-02-10T09:06:35;94113.66;;;-1.38;53.40
53041;BME280;39326;42.650;23.248;2023-02-10T09:09:07;94115.66;;;-0.75;52.79
53041;BME280;39326;42.650;23.248;2023-02-10T09:11:33;94117.88;;;-0.58;52.90
53041;BME280;39326;42.650;23.248;2023-02-10T09:13:59;94119.19;;;-0.61;51.49
53041;BME280;39326;42.650;23.248;2023-02-10T09:16:24;94110.81;;;-0.58;51.54
53041;BME280;39326;42.650;23.248;2023-02-10T09:18:50;94116.44;;;-0.80;50.92
53041;BME280;39326;42.650;23.248;2023-02-10T09:21:16;94114.19;;;-0.52;51.21
53041;BME280;39326;42.650;23.248;2023-02-10T09:23:42;94110.94;;;-0.10;50.24
53041;BME280;39326;42.650;23.248;2023-02-10T09:26:08;94107.59;;;-0.84;48.93
53041;BME280;39326;42.650;23.248;2023-02-10T09:28:33;94110.69;;;-0.13;49.13
53041;BME280;39326;42.650;23.248;2023-02-10T09:30:59;94109.63;;;0.17;49.24
53041;BME280;39326;42.650;23.248;2023-02-10T09:33:25;94107.38;;;0.53;49.01
53041;BME280;39326;42.650;23.248;2023-02-10T09:35:50;94108.19;;;0.29;47.90
53041;BME280;39326;42.650;23.248;2023-02-10T09:38:16;94103.94;;;0.76;47.79
53041;BME280;39326;42.650;23.248;2023-02-10T09:44:19;94091.72;;;0.24;46.62
53041;BME280;39326;42.650;23.248;2023-02-10T09:55:30;94094.13;;;1.38;43.29
53041;BME280;39326;42.650;23.248;2023-02-10T10:00:43;94086.56;;;0.80;44.07
53041;BME280;39326;42.650;23.248;2023-02-10T10:03:17;94090.19;;;1.22;43.81
53041;BME280;39326;42.650;23.248;2023-02-10T10:14:05;94071.00;;;1.22;44.30
53041;BME280;39326;42.650;23.248;2023-02-10T10:25:07;94068.31;;;2.19;41.96
53041;BME280;39326;42.650;23.248;2023-02-10T10:30:45;94061.50;;;2.32;41.83
53041;BME280;39326;42.650;23.248;2023-02-10T10:33:34;94051.91;;;2.64;40.32
53041;BME280;39326;42.650;23.248;2023-02-10T10:36:01;94045.06;;;1.34;42.69
53041;BME280;39326;42.650;23.248;2023-02-10T10:38:32;94057.00;;;1.91;42.32
53041;BME280;39326;42.650;23.248;2023-02-10T10:41:06;94050.81;;;2.65;41.89
53041;BME280;39326;42.650;23.248;2023-02-10T10:43:45;94045.47;;;2.56;40.66
53041;BME280;39326;42.650;23.248;2023-02-10T10:46:26;94041.50;;;2.45;40.44
53041;BME280;39326;42.650;23.248;2023-02-10T10:48:53;94034.56;;;3.21;40.77
53041;BME280;39326;42.650;23.248;2023-02-10T10:51:19;94036.78;;;3.28;40.67
53041;BME280;39326;42.650;23.248;2023-02-10T10:53:56;94030.19;;;3.39;39.98
53041;BME280;39326;42.650;23.248;2023-02-10T10:56:34;94027.88;;;3.38;39.19
53041;BME280;39326;42.650;23.248;2023-02-10T10:59:06;94029.91;;;3.18;40.28
53041;BME280;39326;42.650;23.248;2023-02-10T11:01:39;94018.16;;;3.47;39.72
53041;BME280;39326;42.650;23.248;2023-02-10T11:06:40;94029.22;;;3.35;39.88
53041;BME280;39326;42.650;23.248;2023-02-10T11:09:18;94018.56;;;2.95;38.73
53041;BME280;39326;42.650;23.248;2023-02-10T11:11:45;94017.16;;;3.12;39.29
53041;BME280;39326;42.650;23.248;2023-02-10T11:14:14;94013.94;;;3.68;39.95
53041;BME280;39326;42.650;23.248;2023-02-10T11:16:45;94013.19;;;4.07;39.17
53041;BME280;39326;42.650;23.248;2023-02-10T11:19:22;94013.19;;;4.07;38.57
53041;BME280;39326;42.650;23.248;2023-02-10T11:21:49;94012.31;;;4.21;39.50
53041;BME280;39326;42.650;23.248;2023-02-10T11:29:21;93998.75;;;4.71;38.17
53041;BME280;39326;42.650;23.248;2023-02-10T11:31:47;93982.75;;;5.02;37.91
53041;BME280;39326;42.650;23.248;2023-02-10T11:36:44;93995.88;;;4.24;36.55
53041;BME280;39326;42.650;23.248;2023-02-10T11:41:44;93991.13;;;4.52;37.40
53041;BME280;39326;42.650;23.248;2023-02-10T11:44:23;93986.81;;;5.08;36.76
53041;BME280;39326;42.650;23.248;2023-02-10T11:46:58;93986.19;;;4.93;35.99
53041;BME280;39326;42.650;23.248;2023-02-10T11:49:25;93983.38;;;5.25;37.52
53041;BME280;39326;42.650;23.248;2023-02-10T11:51:57;93986.03;;;4.81;37.41
53041;BME280;39326;42.650;23.248;2023-02-10T11:54:23;93986.63;;;3.73;37.12
53041;BME280;39326;42.650;23.248;2023-02-10T12:00:19;93979.81;;;5.12;36.35
53041;BME280;39326;42.650;23.248;2023-02-10T12:06:30;93977.41;;;5.62;34.48
53041;BME280;39326;42.650;23.248;2023-02-10T12:11:56;93969.59;;;6.04;33.83
53041;BME280;39326;42.650;23.248;2023-02-10T12:14:57;93966.94;;;6.04;33.53
53041;BME280;39326;42.650;23.248;2023-02-10T12:17:26;93960.38;;;6.19;35.73
53041;BME280;39326;42.650;23.248;2023-02-10T12:25:49;93952.53;;;6.52;32.32
53041;BME280;39326;42.650;23.248;2023-02-10T12:31:28;93942.56;;;6.49;33.59
53041;BME280;39326;42.650;23.248;2023-02-10T12:53:26;93925.06;;;6.98;33.30
53041;BME280;39326;42.650;23.248;2023-02-10T12:56:08;93937.44;;;6.73;31.47
53041;BME280;39326;42.650;23.248;2023-02-10T12:58:46;93933.44;;;6.88;32.93
53041;BME280;39326;42.650;23.248;2023-02-10T13:01:26;93939.81;;;6.66;32.44
53041;BME280;39326;42.650;23.248;2023-02-10T13:06:56;93944.06;;;6.38;33.46
53041;BME280;39326;42.650;23.248;2023-02-10T13:14:45;93947.75;;;6.16;33.62
53041;BME280;39326;42.650;23.248;2023-02-10T13:17:12;93937.13;;;6.45;33.68
53041;BME280;39326;42.650;23.248;2023-02-10T13:22:25;93942.03;;;5.67;32.88
53041;BME280;39326;42.650;23.248;2023-02-10T13:25:16;93943.47;;;6.32;33.64
53041;BME280;39326;42.650;23.248;2023-02-10T13:36:16;93946.06;;;5.00;33.78
53041;BME280;39326;42.650;23.248;2023-02-10T13:38:46;93945.28;;;4.74;34.47
53041;BME280;39326;42.650;23.248;2023-02-10T13:41:33;93949.78;;;4.73;34.34
53041;BME280;39326;42.650;23.248;2023-02-10T13:47:10;93941.88;;;3.59;36.05
53041;BME280;39326;42.650;23.248;2023-02-10T13:49:51;93936.50;;;3.64;37.15
53041;BME280;39326;42.650;23.248;2023-02-10T13:52:24;93936.47;;;3.55;37.38
53041;BME280;39326;42.650;23.248;2023-02-10T13:55:02;93939.56;;;3.26;37.61
53041;BME280;39326;42.650;23.248;2023-02-10T13:57:31;93947.47;;;3.57;36.91
53041;BME280;39326;42.650;23.248;2023-02-10T14:00:19;93946.91;;;3.69;37.46
53041;BME280;39326;42.650;23.248;2023-02-10T14:03:18;93941.16;;;3.67;37.12
53041;BME280;39326;42.650;23.248;2023-02-10T14:06:02;93946.84;;;3.60;37.43
53041;BME280;39326;42.650;23.248;2023-02-10T14:08:39;93946.66;;;3.48;37.99
53041;BME280;39326;42.650;23.248;2023-02-10T14:13:56;93944.66;;;3.23;38.38
53041;BME280;39326;42.650;23.248;2023-02-10T14:19:00;93952.44;;;2.83;38.42
53041;BME280;39326;42.650;23.248;2023-02-10T14:21:38;93936.25;;;2.53;38.47
53041;BME280;39326;42.650;23.248;2023-02-10T14:24:12;93938.78;;;2.22;39.85
53041;BME280;39326;42.650;23.248;2023-02-10T14:26:42;93937.72;;;1.96;40.02
53041;BME280;39326;42.650;23.248;2023-02-10T14:29:15;93942.63;;;1.75;40.82
53041;BME280;39326;42.650;23.248;2023-02-10T14:31:43;93946.59;;;1.59;40.77
53041;BME280;39326;42.650;23.248;2023-02-10T14:37:00;93943.16;;;1.31;42.31
53041;BME280;39326;42.650;23.248;2023-02-10T14:39:28;93929.81;;;1.27;41.28
53041;BME280;39326;42.650;23.248;2023-02-10T14:41:57;93933.91;;;1.20;42.13
53041;BME280;39326;42.650;23.248;2023-02-10T14:44:45;93926.47;;;1.08;43.30
53041;BME280;39326;42.650;23.248;2023-02-10T14:47:17;93931.22;;;0.92;42.72
53041;BME280;39326;42.650;23.248;2023-02-10T14:49:48;93931.25;;;0.73;43.44
53041;BME280;39326;42.650;23.248;2023-02-10T14:52:29;93938.13;;;0.69;43.47
53041;BME280;39326;42.650;23.248;2023-02-10T14:54:56;93934.78;;;0.63;43.77
53041;BME280;39326;42.650;23.248;2023-02-10T14:57:24;93938.63;;;0.52;43.49
53041;BME280;39326;42.650;23.248;2023-02-10T14:59:57;93939.63;;;0.38;44.38
53041;BME280;39326;42.650;23.248;2023-02-10T15:02:25;93939.63;;;0.19;44.79
53041;BME280;39326;42.650;23.248;2023-02-10T15:04:55;93941.88;;;0.06;44.63
53041;BME280;39326;42.650;23.248;2023-02-10T15:07:26;93942.81;;;-0.03;45.87
53041;BME280;39326;42.650;23.248;2023-02-10T15:09:55;93945.25;;;-0.12;45.78
53041;BME280;39326;42.650;23.248;2023-02-10T15:12:23;93942.50;;;-0.21;45.88
53041;BME280;39326;42.650;23.248;2023-02-10T15:15:26;93937.75;;;-0.19;46.56
53041;BME280;39326;42.650;23.248;2023-02-10T15:18:26;93939.97;;;-0.31;47.45
53041;BME280;39326;42.650;23.248;2023-02-10T15:20:56;93947.78;;;-0.50;46.93